createdAt,value
2022-11-28T00:01:32.790Z,36.77
2022-11-28T00:04:17.450Z,35.69
2022-11-28T00:07:02.234Z,36.15
2022-11-28T00:09:47.648Z,35.53
2022-11-28T00:12:32.221Z,35.54
2022-11-28T00:15:17.092Z,36.65
2022-11-28T00:18:01.868Z,36.69
2022-11-28T00:20:46.770Z,35.53
2022-11-28T00:23:31.461Z,35.76
2022-11-28T00:26:16.039Z,35.52
2022-11-28T00:29:00.943Z,35.17
2022-11-28T00:31:45.630Z,35.32
2022-11-28T00:34:30.377Z,36.06
2022-11-28T00:37:15.074Z,35.79
2022-11-28T00:40:00.083Z,35.52
2022-11-28T00:42:44.756Z,35.02
2022-11-28T00:45:29.626Z,35.00
2022-11-28T00:48:14.459Z,35.09
2022-11-28T00:50:59.363Z,34.87
2022-11-28T00:53:44.058Z,34.10
2022-11-28T00:56:28.870Z,35.68
2022-11-28T00:59:13.708Z,37.40
2022-11-28T01:01:58.446Z,37.55
2022-11-28T01:04:44.645Z,36.58
2022-11-28T01:07:29.650Z,35.27
2022-11-28T01:10:14.344Z,35.24
2022-11-28T01:12:59.086Z,34.64
2022-11-28T01:15:43.928Z,34.75
2022-11-28T01:18:28.591Z,36.76
2022-11-28T01:21:13.403Z,36.11
2022-11-28T01:23:58.221Z,36.39
2022-11-28T01:26:42.914Z,36.29
2022-11-28T01:29:27.798Z,35.67
2022-11-28T01:32:12.374Z,36.49
2022-11-28T01:34:57.157Z,35.72
2022-11-28T01:37:41.870Z,36.04
2022-11-28T01:40:26.695Z,36.07
2022-11-28T01:43:11.372Z,36.22
2022-11-28T01:45:56.256Z,36.37
2022-11-28T01:48:41.035Z,36.51
2022-11-28T01:51:25.809Z,36.23
2022-11-28T01:54:10.739Z,35.88
2022-11-28T01:56:55.501Z,36.30
2022-11-28T01:59:40.282Z,35.33
2022-11-28T02:02:25.153Z,35.75
2022-11-28T02:05:09.728Z,36.45
2022-11-28T02:07:54.577Z,37.31
2022-11-28T02:10:39.734Z,36.87
2022-11-28T02:13:24.514Z,36.95
2022-11-28T02:16:09.313Z,38.20
2022-11-28T02:18:54.098Z,37.56
2022-11-28T02:21:38.824Z,38.01
2022-11-28T02:24:23.496Z,37.65
2022-11-28T02:27:08.270Z,37.25
2022-11-28T02:29:53.019Z,36.98
2022-11-28T02:32:37.661Z,37.17
2022-11-28T02:35:22.355Z,36.90
2022-11-28T02:38:07.094Z,36.23
2022-11-28T02:40:51.816Z,36.02
2022-11-28T02:43:36.670Z,35.51
2022-11-28T02:46:21.509Z,35.59
2022-11-28T02:49:06.218Z,35.40
2022-11-28T02:51:50.992Z,36.29
2022-11-28T02:54:35.905Z,36.24
2022-11-28T02:57:20.606Z,35.89
2022-11-28T03:00:05.284Z,34.57
2022-11-28T03:02:49.966Z,35.00
2022-11-28T03:05:34.848Z,36.39
2022-11-28T03:08:19.587Z,37.11
2022-11-28T03:11:04.346Z,36.38
2022-11-28T03:13:49.155Z,36.30
2022-11-28T03:16:33.977Z,37.53
2022-11-28T03:19:18.739Z,38.78
2022-11-28T03:22:03.388Z,38.71
2022-11-28T03:24:48.096Z,37.85
2022-11-28T03:27:32.884Z,39.43
2022-11-28T03:30:17.726Z,39.91
2022-11-28T03:33:02.443Z,40.20
2022-11-28T03:35:47.368Z,40.93
2022-11-28T03:38:32.029Z,41.34
2022-11-28T03:41:16.810Z,41.34
2022-11-28T03:44:01.556Z,41.30
2022-11-28T03:46:46.764Z,40.90
2022-11-28T03:49:31.856Z,39.48
2022-11-28T03:52:16.566Z,39.49
2022-11-28T03:55:01.383Z,40.54
2022-11-28T03:57:46.290Z,39.68
2022-11-28T04:00:30.972Z,39.12
2022-11-28T04:03:15.856Z,39.89
2022-11-28T04:06:00.557Z,40.52
2022-11-28T04:08:45.323Z,40.78
2022-11-28T04:11:30.207Z,39.78
2022-11-28T04:14:14.941Z,38.69
2022-11-28T04:16:59.816Z,38.67
2022-11-28T04:19:44.539Z,39.21
2022-11-28T04:22:29.422Z,38.56
2022-11-28T04:25:14.286Z,38.51
2022-11-28T04:27:59.021Z,38.34
2022-11-28T04:30:43.761Z,38.31
2022-11-28T04:33:28.299Z,38.57
2022-11-28T04:36:13.285Z,39.30
2022-11-28T04:38:57.920Z,38.70
2022-11-28T04:41:42.816Z,39.29
2022-11-28T04:44:27.380Z,39.10
2022-11-28T04:47:12.131Z,38.35
2022-11-28T04:49:56.910Z,38.46
2022-11-28T04:52:41.761Z,38.37
2022-11-28T04:55:26.550Z,39.21
2022-11-28T04:58:11.312Z,39.99
2022-11-28T05:00:56.132Z,40.54
2022-11-28T05:03:42.728Z,40.65
2022-11-28T05:06:27.963Z,41.57
2022-11-28T05:09:12.747Z,41.39
2022-11-28T05:11:57.475Z,41.28
2022-11-28T05:14:42.590Z,41.14
2022-11-28T05:17:27.486Z,40.84
2022-11-28T05:20:12.176Z,41.21
2022-11-28T05:22:56.937Z,40.76
2022-11-28T05:25:41.634Z,40.51
2022-11-28T05:28:26.392Z,40.29
2022-11-28T05:31:11.139Z,40.54
2022-11-28T05:33:55.882Z,40.66
2022-11-28T05:36:40.618Z,41.28
2022-11-28T05:39:25.394Z,40.88
2022-11-28T05:42:10.198Z,41.31
2022-11-28T05:44:55.052Z,41.16
2022-11-28T05:47:39.842Z,41.37
2022-11-28T05:50:24.595Z,41.30
2022-11-28T05:53:09.351Z,41.27
2022-11-28T05:55:54.172Z,42.03
2022-11-28T05:58:38.999Z,42.11
2022-11-28T06:01:23.863Z,41.57
2022-11-28T06:04:08.789Z,41.54
2022-11-28T06:06:53.379Z,41.96
2022-11-28T06:09:38.078Z,42.92
2022-11-28T06:12:22.801Z,44.42
2022-11-28T06:15:07.628Z,43.82
2022-11-28T06:17:52.403Z,43.96
2022-11-28T06:20:37.351Z,43.76
2022-11-28T06:23:22.050Z,43.46
2022-11-28T06:26:06.812Z,43.23
2022-11-28T06:28:51.441Z,43.68
2022-11-28T06:31:36.396Z,44.12
2022-11-28T06:34:21.009Z,43.29
2022-11-28T06:37:05.761Z,42.71
2022-11-28T06:39:50.519Z,42.48
2022-11-28T06:42:35.315Z,42.01
2022-11-28T06:45:20.191Z,41.97
2022-11-28T06:48:04.889Z,41.20
2022-11-28T06:50:49.699Z,41.06
2022-11-28T06:53:34.379Z,40.11
2022-11-28T06:56:19.222Z,39.09
2022-11-28T06:59:03.884Z,38.16
2022-11-28T07:01:48.821Z,37.69
2022-11-28T07:04:33.914Z,36.79
2022-11-28T07:07:18.745Z,37.14
2022-11-28T07:10:03.418Z,36.35
2022-11-28T07:12:48.042Z,37.03
2022-11-28T07:15:32.946Z,38.13
2022-11-28T07:18:17.631Z,37.27
2022-11-28T07:21:02.385Z,36.73
2022-11-28T07:23:47.109Z,37.35
2022-11-28T07:26:31.887Z,37.83
2022-11-28T07:29:16.602Z,39.13
2022-11-28T07:32:01.580Z,38.39
2022-11-28T07:34:50.032Z,38.35
2022-11-28T07:37:35.226Z,39.08
2022-11-28T07:40:19.961Z,40.84
2022-11-28T07:43:04.606Z,40.52
2022-11-28T07:46:00.491Z,39.99
2022-11-28T07:48:45.694Z,41.08
2022-11-28T07:51:30.546Z,40.83
2022-11-28T07:54:15.315Z,40.54
2022-11-28T07:57:15.398Z,40.06
2022-11-28T08:00:00.459Z,40.45
2022-11-28T08:02:45.282Z,42.25
2022-11-28T08:05:29.978Z,42.83
2022-11-28T08:08:14.715Z,42.80
2022-11-28T08:10:59.554Z,42.89
2022-11-28T08:13:44.257Z,42.58
2022-11-28T08:16:28.961Z,42.88
2022-11-28T08:19:13.718Z,42.68
2022-11-28T08:21:58.721Z,42.19
2022-11-28T08:24:44.137Z,42.32
2022-11-28T08:27:29.598Z,41.10
2022-11-28T08:30:14.297Z,41.63
2022-11-28T08:32:59.146Z,42.38
2022-11-28T08:35:43.874Z,42.55
2022-11-28T08:38:28.586Z,42.96
2022-11-28T08:41:13.393Z,42.58
2022-11-28T08:43:57.991Z,41.29
2022-11-28T08:46:42.683Z,42.45
2022-11-28T08:49:27.375Z,41.44
2022-11-28T08:52:12.243Z,41.22
2022-11-28T08:54:56.872Z,40.73
2022-11-28T08:57:41.676Z,40.81
2022-11-28T09:00:26.407Z,40.63
2022-11-28T09:03:11.179Z,40.43
2022-11-28T09:05:55.900Z,39.95
2022-11-28T09:08:40.667Z,40.04
2022-11-28T09:11:25.501Z,39.37
2022-11-28T09:14:10.365Z,41.39
2022-11-28T09:16:55.192Z,40.65
2022-11-28T09:19:40.343Z,41.17
2022-11-28T09:22:25.606Z,39.70
2022-11-28T09:25:10.247Z,38.55
2022-11-28T09:27:55.019Z,38.73
2022-11-28T09:30:39.705Z,39.03
2022-11-28T09:33:24.525Z,39.47
2022-11-28T09:36:09.214Z,40.06
2022-11-28T09:38:54.034Z,39.00
2022-11-28T09:41:38.818Z,39.08
2022-11-28T09:44:23.581Z,40.42
2022-11-28T09:47:08.326Z,40.54
2022-11-28T09:49:53.165Z,38.56
2022-11-28T09:52:38.147Z,39.93
2022-11-28T09:55:23.191Z,39.16
2022-11-28T09:58:08.038Z,40.22
2022-11-28T10:00:55.575Z,39.49
2022-11-28T10:03:40.565Z,41.10
2022-11-28T10:06:25.252Z,42.00
2022-11-28T10:09:09.920Z,41.09
2022-11-28T10:11:54.789Z,40.87
2022-11-28T10:14:39.472Z,40.96
2022-11-28T10:17:24.294Z,40.48
2022-11-28T10:20:09.101Z,40.09
2022-11-28T10:22:53.864Z,39.70
2022-11-28T10:25:38.679Z,38.72
2022-11-28T10:28:23.385Z,38.51
2022-11-28T10:31:08.316Z,37.72
2022-11-28T10:33:52.988Z,38.71
2022-11-28T10:36:37.746Z,38.77
2022-11-28T10:39:22.435Z,38.00
2022-11-28T10:42:07.292Z,38.04
2022-11-28T10:44:52.064Z,38.33
2022-11-28T10:47:36.804Z,37.44
2022-11-28T10:50:21.648Z,37.83
2022-11-28T10:53:06.655Z,36.78
2022-11-28T10:55:51.449Z,37.37
2022-11-28T10:58:36.136Z,37.37
2022-11-28T11:01:21.160Z,36.11
2022-11-28T11:04:05.790Z,33.84
2022-11-28T11:07:07.891Z,36.79
2022-11-28T11:09:54.947Z,37.48
2022-11-28T11:12:39.654Z,37.10
2022-11-28T11:15:24.672Z,37.42
2022-11-28T11:18:09.357Z,39.53
2022-11-28T11:20:54.085Z,40.08
2022-11-28T11:23:38.899Z,40.20
2022-11-28T11:26:23.737Z,40.56
2022-11-28T11:29:08.513Z,40.51
2022-11-28T11:31:53.362Z,40.58
2022-11-28T11:34:38.163Z,42.57
2022-11-28T11:37:22.993Z,41.90
2022-11-28T11:40:07.851Z,41.49
2022-11-28T11:42:52.531Z,41.43
2022-11-28T11:45:37.313Z,40.76
2022-11-28T11:48:21.822Z,40.27
2022-11-28T11:51:06.615Z,39.33
2022-11-28T11:53:51.315Z,38.11
2022-11-28T11:56:36.165Z,36.91
2022-11-28T11:59:20.739Z,36.17
2022-11-28T12:02:05.597Z,36.09
2022-11-28T12:04:55.214Z,36.64
2022-11-28T12:07:40.601Z,36.16
2022-11-28T12:10:25.251Z,36.17
2022-11-28T12:13:09.964Z,36.04
2022-11-28T12:15:54.869Z,35.29
2022-11-28T12:18:39.502Z,36.11
2022-11-28T12:21:24.237Z,36.68
2022-11-28T12:24:09.126Z,35.38
2022-11-28T12:26:54.008Z,36.18
2022-11-28T12:29:38.963Z,36.09
2022-11-28T12:32:23.654Z,35.91
2022-11-28T12:35:08.459Z,38.31
2022-11-28T12:40:57.987Z,37.92
2022-11-28T12:43:42.793Z,38.10
2022-11-28T12:46:27.453Z,38.41
2022-11-28T12:49:12.129Z,37.85
2022-11-28T12:51:56.922Z,37.22
2022-11-28T12:54:41.773Z,38.70
2022-11-28T12:57:26.463Z,39.51
2022-11-28T13:00:11.163Z,40.08
2022-11-28T13:02:55.885Z,41.50
2022-11-28T13:05:40.430Z,41.23
2022-11-28T13:08:25.285Z,40.24
2022-11-28T13:11:09.903Z,39.83
2022-11-28T13:13:54.724Z,40.08
2022-11-28T13:16:39.536Z,39.42
2022-11-28T13:19:24.722Z,38.78
2022-11-28T13:22:09.439Z,38.64
2022-11-28T13:24:54.230Z,36.75
2022-11-28T13:27:39.010Z,36.12
2022-11-28T13:30:23.788Z,39.63
2022-11-28T13:33:08.510Z,39.94
2022-11-28T13:35:53.166Z,40.00
2022-11-28T13:38:44.161Z,40.00
2022-11-28T13:42:09.549Z,39.53
2022-11-28T13:44:40.561Z,39.02
2022-11-28T13:47:25.230Z,38.96
2022-11-28T13:50:10.027Z,40.28
2022-11-28T13:52:54.707Z,40.53
2022-11-28T13:55:39.381Z,39.79
2022-11-28T13:58:24.351Z,40.37
2022-11-28T14:01:09.040Z,41.48
2022-11-28T14:03:53.819Z,42.13
2022-11-28T14:06:38.467Z,44.54
2022-11-28T14:09:23.296Z,43.95
2022-11-28T14:12:08.070Z,43.44
2022-11-28T14:14:53.268Z,44.60
2022-11-28T14:17:37.974Z,45.48
2022-11-28T14:20:22.768Z,44.14
2022-11-28T14:23:08.306Z,43.95
2022-11-28T14:25:53.174Z,42.75
2022-11-28T14:28:37.950Z,42.94
2022-11-28T14:31:23.483Z,42.62
2022-11-28T14:34:08.640Z,42.45
2022-11-28T14:36:53.246Z,42.97
2022-11-28T14:39:38.094Z,43.81
2022-11-28T14:42:57.801Z,43.47
2022-11-28T14:45:27.781Z,42.45
2022-11-28T14:48:12.661Z,42.40
2022-11-28T14:51:01.748Z,42.04
2022-11-28T14:53:47.183Z,43.22
2022-11-28T14:56:32.106Z,44.06
2022-11-28T14:59:16.826Z,44.59
2022-11-28T15:02:01.774Z,44.14
2022-11-28T15:04:46.883Z,44.06
2022-11-28T15:07:31.651Z,42.85
2022-11-28T15:10:16.290Z,42.70
2022-11-28T15:13:01.074Z,43.86
2022-11-28T15:15:46.023Z,44.61
2022-11-28T15:18:30.755Z,44.23
2022-11-28T15:21:15.411Z,44.45
2022-11-28T15:24:00.116Z,44.80
2022-11-28T15:26:44.925Z,44.21
2022-11-28T15:29:29.697Z,43.97
2022-11-28T15:32:14.525Z,44.25
2022-11-28T15:34:59.552Z,43.39
2022-11-28T15:37:44.459Z,43.63
2022-11-28T15:40:29.262Z,43.78
2022-11-28T15:43:14.041Z,44.43
2022-11-28T15:45:58.893Z,43.20
2022-11-28T15:48:43.644Z,42.91
2022-11-28T15:51:28.519Z,44.27
2022-11-28T15:54:15.016Z,43.52
2022-11-28T15:57:00.015Z,43.07
2022-11-28T15:59:44.792Z,42.76
2022-11-28T16:02:29.610Z,42.69
2022-11-28T16:05:14.558Z,43.22
2022-11-28T16:07:59.469Z,43.01
2022-11-28T16:10:44.755Z,43.57
2022-11-28T16:13:29.571Z,43.80
2022-11-28T16:16:14.390Z,42.40
2022-11-28T16:18:58.960Z,42.42
2022-11-28T16:21:43.674Z,42.77
2022-11-28T16:24:31.119Z,43.73
2022-11-28T16:27:18.650Z,43.65
2022-11-28T16:30:03.435Z,42.92
2022-11-28T16:32:48.202Z,42.83
2022-11-28T16:35:33.005Z,41.81
2022-11-28T16:38:18.031Z,41.82
2022-11-28T16:41:02.791Z,42.14
2022-11-28T16:43:47.513Z,41.97
2022-11-28T16:46:32.340Z,42.25
2022-11-28T16:49:17.242Z,42.08
2022-11-28T16:52:02.070Z,42.23
2022-11-28T16:54:47.001Z,42.98
2022-11-28T16:57:33.049Z,42.49
2022-11-28T17:00:17.905Z,42.38
2022-11-28T17:03:02.784Z,42.10
2022-11-28T17:05:47.590Z,42.41
2022-11-28T17:08:32.640Z,42.71
2022-11-28T17:11:17.319Z,42.64
2022-11-28T17:14:02.847Z,42.74
2022-11-28T17:16:48.063Z,43.18
2022-11-28T17:19:32.945Z,43.78
2022-11-28T17:22:17.756Z,44.61
2022-11-28T17:25:02.522Z,44.02
2022-11-28T17:27:47.378Z,44.42
2022-11-28T17:30:32.197Z,44.48
2022-11-28T17:33:17.013Z,44.92
2022-11-28T17:36:01.560Z,44.77
2022-11-28T17:38:46.327Z,44.98
2022-11-28T17:41:31.053Z,45.26
2022-11-28T17:44:15.880Z,44.74
2022-11-28T17:47:00.573Z,45.20
2022-11-28T17:49:46.590Z,45.62
2022-11-28T17:52:31.658Z,45.35
2022-11-28T17:55:16.399Z,45.31
2022-11-28T17:58:01.106Z,46.15
2022-11-28T18:00:45.789Z,46.49
2022-11-28T18:03:30.606Z,46.36
2022-11-28T18:06:15.279Z,46.40
2022-11-28T18:09:00.024Z,46.77
2022-11-28T18:11:44.662Z,47.57
2022-11-28T18:14:29.564Z,47.81
2022-11-28T18:17:14.352Z,47.54
2022-11-28T18:19:59.185Z,46.85
2022-11-28T18:22:44.262Z,46.75
2022-11-28T18:25:28.990Z,46.76
2022-11-28T18:28:18.641Z,46.79
2022-11-28T18:31:04.082Z,47.19
2022-11-28T18:33:48.838Z,47.28
2022-11-28T18:36:33.605Z,46.81
2022-11-28T18:39:18.355Z,49.14
2022-11-28T18:42:03.045Z,48.16
2022-11-28T18:44:47.739Z,48.28
2022-11-28T18:47:32.497Z,47.63
2022-11-28T18:50:17.239Z,49.12
2022-11-28T18:53:02.134Z,49.30
2022-11-28T18:55:46.883Z,49.74
2022-11-28T18:58:31.576Z,49.38
2022-11-28T19:01:16.513Z,49.02
2022-11-28T19:04:01.122Z,49.18
2022-11-28T19:06:46.097Z,49.32
2022-11-28T19:09:30.973Z,49.09
2022-11-28T19:12:15.707Z,49.29
2022-11-28T19:15:02.328Z,48.80
2022-11-28T19:17:47.570Z,48.89
2022-11-28T19:20:32.418Z,49.03
2022-11-28T19:23:17.168Z,49.24
2022-11-28T19:26:01.877Z,48.45
2022-11-28T19:28:46.610Z,48.21
2022-11-28T19:31:31.439Z,48.40
2022-11-28T19:34:16.170Z,48.93
2022-11-28T19:37:00.907Z,49.15
2022-11-28T19:39:45.723Z,48.91
2022-11-28T19:42:30.794Z,49.90
2022-11-28T19:45:15.565Z,50.21
2022-11-28T19:48:00.440Z,50.14
2022-11-28T19:50:45.235Z,50.41
2022-11-28T19:53:29.817Z,50.28
2022-11-28T19:56:14.621Z,50.31
2022-11-28T19:58:59.205Z,51.06
2022-11-28T20:01:43.979Z,51.80
2022-11-28T20:04:28.594Z,52.30
2022-11-28T20:07:13.317Z,52.22
2022-11-28T20:09:57.948Z,52.20
2022-11-28T20:12:42.678Z,52.22
2022-11-28T20:15:27.362Z,52.49
2022-11-28T20:18:12.135Z,52.57
2022-11-28T20:20:56.874Z,52.55
2022-11-28T20:23:41.487Z,52.87
2022-11-28T20:26:26.302Z,52.00
2022-11-28T20:29:11.019Z,52.29
2022-11-28T20:31:55.912Z,51.93
2022-11-28T20:34:40.575Z,52.64
2022-11-28T20:37:25.469Z,52.25
2022-11-28T20:40:10.038Z,51.46
2022-11-28T20:42:54.862Z,52.41
2022-11-28T20:45:39.642Z,51.76
2022-11-28T20:48:24.403Z,51.90
2022-11-28T20:51:09.206Z,52.03
2022-11-28T20:53:54.008Z,52.14
2022-11-28T20:57:05.166Z,52.34
2022-11-28T20:59:44.020Z,53.15
2022-11-28T21:02:29.178Z,52.71
2022-11-28T21:05:14.484Z,52.89
2022-11-28T21:07:59.278Z,53.28
2022-11-28T21:10:43.989Z,52.65
2022-11-28T21:13:28.801Z,53.17
2022-11-28T21:16:13.525Z,53.51
2022-11-28T21:18:58.150Z,53.70
2022-11-28T21:21:43.069Z,53.88
2022-11-28T21:24:28.003Z,54.46
2022-11-28T21:27:12.816Z,53.83
2022-11-28T21:29:57.740Z,53.47
2022-11-28T21:32:42.559Z,52.63
2022-11-28T21:35:27.375Z,53.98
2022-11-28T21:38:12.189Z,54.68
2022-11-28T21:40:56.935Z,54.78
2022-11-28T21:43:41.807Z,54.69
2022-11-28T21:46:26.458Z,55.59
2022-11-28T21:49:11.303Z,55.91
2022-11-28T21:51:56.111Z,56.31
2022-11-28T21:54:40.969Z,55.98
2022-11-28T21:57:25.766Z,56.67
2022-11-28T22:00:20.739Z,56.15
2022-11-28T22:03:15.416Z,56.74
2022-11-28T22:06:00.711Z,56.04
2022-11-28T22:08:45.401Z,55.65
2022-11-28T22:11:30.188Z,55.54
2022-11-28T22:14:14.932Z,55.57
2022-11-28T22:16:59.623Z,55.12
2022-11-28T22:19:44.418Z,55.05
2022-11-28T22:22:28.993Z,54.61
2022-11-28T22:25:13.810Z,54.49
2022-11-28T22:27:58.559Z,54.83
2022-11-28T22:30:43.295Z,54.79
2022-11-28T22:33:28.027Z,55.12
2022-11-28T22:36:12.689Z,56.29
2022-11-28T22:38:57.390Z,56.32
2022-11-28T22:41:42.251Z,57.11
2022-11-28T22:44:27.002Z,56.63
2022-11-28T22:47:11.761Z,58.03
2022-11-28T22:49:56.571Z,57.96
2022-11-28T22:52:41.211Z,60.04
2022-11-28T22:55:26.018Z,61.38
2022-11-28T22:58:10.587Z,60.41
2022-11-28T23:00:55.314Z,61.80
2022-11-28T23:03:40.032Z,61.04
2022-11-28T23:06:24.819Z,60.54
2022-11-28T23:09:09.679Z,61.99
2022-11-28T23:11:54.534Z,61.43
2022-11-28T23:14:39.250Z,60.22
2022-11-28T23:17:23.919Z,59.34
2022-11-28T23:20:08.769Z,59.09
2022-11-28T23:22:53.315Z,58.36
2022-11-28T23:25:38.086Z,59.30
2022-11-28T23:28:22.891Z,60.21
2022-11-28T23:31:07.809Z,59.23
2022-11-28T23:33:52.498Z,59.25
2022-11-28T23:36:42.045Z,59.03
2022-11-28T23:39:27.477Z,58.86
2022-11-28T23:42:12.168Z,59.93
2022-11-28T23:44:57.026Z,59.46
2022-11-28T23:47:41.824Z,59.71
2022-11-28T23:50:26.583Z,59.47
2022-11-28T23:53:11.311Z,59.42
2022-11-28T23:55:56.171Z,59.57
2022-11-28T23:58:40.998Z,59.43
